sensor_id;sensor_type;location;lat;lon;timestamp;pressure;altitude;pressure_sealevel;temperature;humidity
14089;BME280;7120;52.890;6.040;2023-01-08T00:00:29;100097.94;;;9.95;91.31
14089;BME280;7120;52.890;6.040;2023-01-08T00:02:54;100083.78;;;9.93;90.55
14089;BME280;7120;52.890;6.040;2023-01-08T00:05:19;100098.09;;;9.90;91.53
14089;BME280;7120;52.890;6.040;2023-01-08T00:07:45;100103.22;;;9.91;91.08
14089;BME280;7120;52.890;6.040;2023-01-08T00:10:10;100107.47;;;10.06;90.39
14089;BME280;7120;52.890;6.040;2023-01-08T00:12:35;100106.66;;;10.14;90.50
14089;BME280;7120;52.890;6.040;2023-01-08T00:15:01;100111.19;;;10.19;90.24
14089;BME280;7120;52.890;6.040;2023-01-08T00:17:26;100105.88;;;10.14;89.83
14089;BME280;7120;52.890;6.040;2023-01-08T00:19:52;100086.38;;;9.98;89.59
14089;BME280;7120;52.890;6.040;2023-01-08T00:22:17;100100.09;;;10.15;89.54
14089;BME280;7120;52.890;6.040;2023-01-08T00:24:43;100094.78;;;10.10;89.43
14089;BME280;7120;52.890;6.040;2023-01-08T00:27:09;100105.22;;;10.08;90.41
14089;BME280;7120;52.890;6.040;2023-01-08T00:29:35;100094.94;;;10.14;90.31
14089;BME280;7120;52.890;6.040;2023-01-08T00:32:02;100083.66;;;10.07;89.78
14089;BME280;7120;52.890;6.040;2023-01-08T00:34:27;100081.41;;;10.00;89.36
14089;BME280;7120;52.890;6.040;2023-01-08T00:36:53;100080.31;;;10.10;89.28
14089;BME280;7120;52.890;6.040;2023-01-08T00:39:18;100090.59;;;10.13;89.83
14089;BME280;7120;52.890;6.040;2023-01-08T00:41:44;100091.03;;;9.98;89.18
14089;BME280;7120;52.890;6.040;2023-01-08T00:44:10;100082.97;;;9.93;89.15
14089;BME280;7120;52.890;6.040;2023-01-08T00:46:56;100086.50;;;9.93;88.95
14089;BME280;7120;52.890;6.040;2023-01-08T00:49:22;100094.56;;;9.98;88.54
14089;BME280;7120;52.890;6.040;2023-01-08T00:51:49;100086.91;;;10.09;88.16
14089;BME280;7120;52.890;6.040;2023-01-08T00:54:14;100089.31;;;10.10;88.16
14089;BME280;7120;52.890;6.040;2023-01-08T00:56:40;100082.88;;;10.06;88.25
14089;BME280;7120;52.890;6.040;2023-01-08T00:59:05;100071.13;;;10.06;88.80
14089;BME280;7120;52.890;6.040;2023-01-08T01:01:32;100084.97;;;10.01;88.80
14089;BME280;7120;52.890;6.040;2023-01-08T01:03:57;100096.06;;;10.13;88.60
14089;BME280;7120;52.890;6.040;2023-01-08T01:06:23;100085.94;;;10.13;88.60
14089;BME280;7120;52.890;6.040;2023-01-08T01:08:49;100075.78;;;10.05;88.82
14089;BME280;7120;52.890;6.040;2023-01-08T01:11:26;100082.72;;;10.11;88.66
14089;BME280;7120;52.890;6.040;2023-01-08T01:13:54;100084.66;;;10.11;88.74
14089;BME280;7120;52.890;6.040;2023-01-08T01:16:21;100077.22;;;9.94;88.16
14089;BME280;7120;52.890;6.040;2023-01-08T01:18:56;100073.16;;;9.83;87.89
14089;BME280;7120;52.890;6.040;2023-01-08T01:21:25;100066.22;;;9.77;88.33
14089;BME280;7120;52.890;6.040;2023-01-08T01:23:58;100081.31;;;9.74;87.15
14089;BME280;7120;52.890;6.040;2023-01-08T01:26:24;100079.84;;;9.68;86.89
14089;BME280;7120;52.890;6.040;2023-01-08T01:28:52;100084.31;;;9.64;87.34
14089;BME280;7120;52.890;6.040;2023-01-08T01:31:18;100084.41;;;9.50;87.39
14089;BME280;7120;52.890;6.040;2023-01-08T01:33:45;100082.94;;;9.44;87.00
14089;BME280;7120;52.890;6.040;2023-01-08T01:36:12;100093.84;;;9.44;87.35
14089;BME280;7120;52.890;6.040;2023-01-08T01:38:41;100088.97;;;9.32;87.39
14089;BME280;7120;52.890;6.040;2023-01-08T01:41:40;100087.81;;;9.25;87.67
14089;BME280;7120;52.890;6.040;2023-01-08T01:47:19;100099.84;;;9.24;87.42
14089;BME280;7120;52.890;6.040;2023-01-08T01:52:33;100098.97;;;9.15;87.51
14089;BME280;7120;52.890;6.040;2023-01-08T01:55:02;100102.22;;;9.17;87.07
14089;BME280;7120;52.890;6.040;2023-01-08T01:57:29;100095.75;;;9.13;87.57
14089;BME280;7120;52.890;6.040;2023-01-08T01:59:57;100096.22;;;9.15;87.11
14089;BME280;7120;52.890;6.040;2023-01-08T02:02:23;100096.56;;;9.13;86.69
14089;BME280;7120;52.890;6.040;2023-01-08T02:04:52;100101.69;;;9.15;86.97
14089;BME280;7120;52.890;6.040;2023-01-08T02:12:40;100101.94;;;9.04;86.62
14089;BME280;7120;52.890;6.040;2023-01-08T02:15:23;100100.63;;;9.02;86.68
14089;BME280;7120;52.890;6.040;2023-01-08T02:20:49;100093.78;;;9.04;86.63
14089;BME280;7120;52.890;6.040;2023-01-08T02:26:33;100108.44;;;8.95;86.64
14089;BME280;7120;52.890;6.040;2023-01-08T02:29:10;100104.00;;;8.99;86.41
14089;BME280;7120;52.890;6.040;2023-01-08T02:31:41;100107.03;;;8.97;86.96
14089;BME280;7120;52.890;6.040;2023-01-08T02:34:07;100098.66;;;8.94;87.06
14089;BME280;7120;52.890;6.040;2023-01-08T02:39:14;100092.44;;;8.79;87.97
14089;BME280;7120;52.890;6.040;2023-01-08T02:47:36;100078.16;;;8.74;88.56
14089;BME280;7120;52.890;6.040;2023-01-08T02:50:15;100092.16;;;8.81;89.21
14089;BME280;7120;52.890;6.040;2023-01-08T02:55:38;100068.38;;;8.59;90.04
14089;BME280;7120;52.890;6.040;2023-01-08T02:58:07;100082.09;;;8.68;89.85
14089;BME280;7120;52.890;6.040;2023-01-08T03:00:33;100075.16;;;8.62;90.61
14089;BME280;7120;52.890;6.040;2023-01-08T03:03:10;100076.97;;;8.52;90.46
14089;BME280;7120;52.890;6.040;2023-01-08T03:05:41;100084.44;;;8.61;91.00
14089;BME280;7120;52.890;6.040;2023-01-08T03:08:09;100081.75;;;8.47;91.39
14089;BME280;7120;52.890;6.040;2023-01-08T03:10:37;100071.84;;;8.51;91.06
14089;BME280;7120;52.890;6.040;2023-01-08T03:13:28;100080.25;;;8.41;92.11
14089;BME280;7120;52.890;6.040;2023-01-08T03:15:58;100083.88;;;8.36;92.31
14089;BME280;7120;52.890;6.040;2023-01-08T03:18:30;100084.69;;;8.37;92.22
14089;BME280;7120;52.890;6.040;2023-01-08T03:21:01;100074.78;;;8.27;92.08
14089;BME280;7120;52.890;6.040;2023-01-08T03:23:32;100084.56;;;8.28;93.42
14089;BME280;7120;52.890;6.040;2023-01-08T03:25:59;100083.88;;;8.36;93.34
14089;BME280;7120;52.890;6.040;2023-01-08T03:28:36;100063.69;;;8.23;94.18
14089;BME280;7120;52.890;6.040;2023-01-08T03:31:04;100077.03;;;8.39;93.71
14089;BME280;7120;52.890;6.040;2023-01-08T03:33:31;100063.59;;;8.42;94.10
14089;BME280;7120;52.890;6.040;2023-01-08T03:36:00;100072.94;;;8.50;93.80
14089;BME280;7120;52.890;6.040;2023-01-08T03:38:36;100072.34;;;8.53;94.10
14089;BME280;7120;52.890;6.040;2023-01-08T03:41:12;100068.09;;;8.61;93.30
14089;BME280;7120;52.890;6.040;2023-01-08T03:43:39;100073.22;;;8.62;93.86
14089;BME280;7120;52.890;6.040;2023-01-08T03:46:15;100059.59;;;8.62;93.39
14089;BME280;7120;52.890;6.040;2023-01-08T03:48:45;100062.88;;;8.73;93.22
14089;BME280;7120;52.890;6.040;2023-01-08T03:51:16;100055.81;;;8.72;93.46
14089;BME280;7120;52.890;6.040;2023-01-08T03:53:43;100051.25;;;8.81;92.92
14089;BME280;7120;52.890;6.040;2023-01-08T03:56:08;100045.91;;;8.76;93.43
14089;BME280;7120;52.890;6.040;2023-01-08T03:58:34;100044.84;;;8.86;93.85
14089;BME280;7120;52.890;6.040;2023-01-08T04:00:59;100036.41;;;8.73;93.67
14089;BME280;7120;52.890;6.040;2023-01-08T04:03:25;100030.06;;;8.78;93.63
14089;BME280;7120;52.890;6.040;2023-01-08T04:05:50;100021.88;;;8.78;93.78
14089;BME280;7120;52.890;6.040;2023-01-08T04:08:16;100030.75;;;8.84;93.48
14089;BME280;7120;52.890;6.040;2023-01-08T04:10:41;100006.38;;;8.65;94.21
14089;BME280;7120;52.890;6.040;2023-01-08T04:13:06;100031.66;;;8.79;93.87
14089;BME280;7120;52.890;6.040;2023-01-08T04:15:34;100033.91;;;8.77;93.92
14089;BME280;7120;52.890;6.040;2023-01-08T04:18:00;100034.91;;;8.81;93.96
14089;BME280;7120;52.890;6.040;2023-01-08T04:20:25;100019.03;;;8.83;94.18
14089;BME280;7120;52.890;6.040;2023-01-08T04:22:51;100014.56;;;8.87;93.66
14089;BME280;7120;52.890;6.040;2023-01-08T04:25:17;100000.69;;;8.75;93.87
14089;BME280;7120;52.890;6.040;2023-01-08T04:27:43;100017.16;;;8.92;93.47
14089;BME280;7120;52.890;6.040;2023-01-08T04:30:09;100020.97;;;8.83;93.57
14089;BME280;7120;52.890;6.040;2023-01-08T04:32:35;100016.69;;;8.90;93.60
14089;BME280;7120;52.890;6.040;2023-01-08T04:35:02;100011.91;;;8.96;93.24
14089;BME280;7120;52.890;6.040;2023-01-08T04:37:28;99999.44;;;9.03;93.12
14089;BME280;7120;52.890;6.040;2023-01-08T04:39:53;99975.41;;;8.83;92.43
14089;BME280;7120;52.890;6.040;2023-01-08T04:42:20;99986.59;;;9.04;91.89
14089;BME280;7120;52.890;6.040;2023-01-08T04:44:45;99991.84;;;9.00;92.43
14089;BME280;7120;52.890;6.040;2023-01-08T04:47:12;99982.34;;;8.89;92.83
14089;BME280;7120;52.890;6.040;2023-01-08T04:49:37;100006.72;;;8.94;92.35
14089;BME280;7120;52.890;6.040;2023-01-08T04:52:03;99992.88;;;8.82;92.46
14089;BME280;7120;52.890;6.040;2023-01-08T04:54:29;99962.03;;;8.73;92.46
14089;BME280;7120;52.890;6.040;2023-01-08T04:56:54;99997.59;;;8.90;92.42
14089;BME280;7120;52.890;6.040;2023-01-08T04:59:20;99970.44;;;8.85;91.38
14089;BME280;7120;52.890;6.040;2023-01-08T05:01:45;99977.97;;;9.11;91.61
14089;BME280;7120;52.890;6.040;2023-01-08T05:04:10;99981.59;;;8.97;91.00
14089;BME280;7120;52.890;6.040;2023-01-08T05:06:36;99974.34;;;8.93;91.08
14089;BME280;7120;52.890;6.040;2023-01-08T05:09:02;99974.22;;;8.98;91.19
14089;BME280;7120;52.890;6.040;2023-01-08T05:11:28;99985.28;;;9.01;91.21
14089;BME280;7120;52.890;6.040;2023-01-08T05:13:53;99982.06;;;8.99;91.43
14089;BME280;7120;52.890;6.040;2023-01-08T05:16:19;99979.63;;;8.89;91.15
14089;BME280;7120;52.890;6.040;2023-01-08T05:18:46;99973.72;;;8.96;91.27
14089;BME280;7120;52.890;6.040;2023-01-08T05:21:12;99984.56;;;8.87;90.80
14089;BME280;7120;52.890;6.040;2023-01-08T05:23:37;99989.16;;;8.78;90.76
14089;BME280;7120;52.890;6.040;2023-01-08T05:26:05;99987.31;;;8.65;90.53
14089;BME280;7120;52.890;6.040;2023-01-08T05:28:32;99992.00;;;8.73;90.46
14089;BME280;7120;52.890;6.040;2023-01-08T05:30:58;99986.81;;;8.63;90.09
14089;BME280;7120;52.890;6.040;2023-01-08T05:33:23;99989.44;;;8.68;90.08
14089;BME280;7120;52.890;6.040;2023-01-08T05:35:49;99988.38;;;8.55;90.73
14089;BME280;7120;52.890;6.040;2023-01-08T05:38:15;99979.75;;;8.62;90.34
14089;BME280;7120;52.890;6.040;2023-01-08T05:40:40;99979.25;;;8.60;90.14
14089;BME280;7120;52.890;6.040;2023-01-08T05:43:05;99993.50;;;8.57;90.17
14089;BME280;7120;52.890;6.040;2023-01-08T05:45:31;99996.91;;;8.62;89.88
14089;BME280;7120;52.890;6.040;2023-01-08T05:47:57;99986.25;;;8.52;90.78
14089;BME280;7120;52.890;6.040;2023-01-08T05:50:24;99995.25;;;8.75;89.67
14089;BME280;7120;52.890;6.040;2023-01-08T05:52:50;99997.72;;;8.63;89.58
14089;BME280;7120;52.890;6.040;2023-01-08T05:55:16;99984.47;;;8.47;91.15
14089;BME280;7120;52.890;6.040;2023-01-08T05:57:41;99989.72;;;8.44;91.83
14089;BME280;7120;52.890;6.040;2023-01-08T06:00:09;100004.94;;;8.45;91.75
14089;BME280;7120;52.890;6.040;2023-01-08T06:02:37;99996.91;;;8.26;93.23
14089;BME280;7120;52.890;6.040;2023-01-08T06:05:03;99999.75;;;8.21;93.75
14089;BME280;7120;52.890;6.040;2023-01-08T06:07:30;100004.56;;;8.24;95.24
14089;BME280;7120;52.890;6.040;2023-01-08T06:09:55;99978.41;;;8.01;96.02
14089;BME280;7120;52.890;6.040;2023-01-08T06:12:20;99990.56;;;8.17;96.28
14089;BME280;7120;52.890;6.040;2023-01-08T06:14:46;99991.56;;;8.21;95.97
14089;BME280;7120;52.890;6.040;2023-01-08T06:17:11;99993.25;;;8.31;95.75
14089;BME280;7120;52.890;6.040;2023-01-08T06:19:36;99982.28;;;8.22;95.64
14089;BME280;7120;52.890;6.040;2023-01-08T06:22:04;99971.00;;;8.15;95.68
14089;BME280;7120;52.890;6.040;2023-01-08T06:24:29;99975.47;;;8.11;95.69
14089;BME280;7120;52.890;6.040;2023-01-08T06:26:54;99977.09;;;8.12;96.04
14089;BME280;7120;52.890;6.040;2023-01-08T06:29:20;99992.31;;;8.13;95.30
14089;BME280;7120;52.890;6.040;2023-01-08T06:31:45;99997.38;;;8.06;96.31
14089;BME280;7120;52.890;6.040;2023-01-08T06:34:10;99991.94;;;7.92;96.19
14089;BME280;7120;52.890;6.040;2023-01-08T06:36:36;100001.22;;;7.91;96.43
14089;BME280;7120;52.890;6.040;2023-01-08T06:39:01;99999.81;;;7.93;96.40
14089;BME280;7120;52.890;6.040;2023-01-08T06:41:29;100007.50;;;7.78;97.64
14089;BME280;7120;52.890;6.040;2023-01-08T06:43:54;99979.97;;;7.65;97.67
14089;BME280;7120;52.890;6.040;2023-01-08T06:46:19;99990.13;;;7.74;97.42
14089;BME280;7120;52.890;6.040;2023-01-08T06:48:45;99977.06;;;7.62;96.66
14089;BME280;7120;52.890;6.040;2023-01-08T06:51:10;99982.38;;;7.67;96.96
14089;BME280;7120;52.890;6.040;2023-01-08T06:53:35;99994.88;;;7.68;96.82
14089;BME280;7120;52.890;6.040;2023-01-08T06:56:02;99995.41;;;7.70;97.63
14089;BME280;7120;52.890;6.040;2023-01-08T06:58:28;99996.78;;;7.67;97.62
14089;BME280;7120;52.890;6.040;2023-01-08T07:00:54;99989.97;;;7.70;96.67
14089;BME280;7120;52.890;6.040;2023-01-08T07:03:20;99982.59;;;7.57;97.49
14089;BME280;7120;52.890;6.040;2023-01-08T07:05:46;99980.59;;;7.49;97.50
14089;BME280;7120;52.890;6.040;2023-01-08T07:08:15;99987.56;;;7.55;97.47
14089;BME280;7120;52.890;6.040;2023-01-08T07:10:41;99983.31;;;7.49;98.09
14089;BME280;7120;52.890;6.040;2023-01-08T07:13:07;99988.34;;;7.55;97.49
14089;BME280;7120;52.890;6.040;2023-01-08T07:15:35;99987.03;;;7.53;96.91
14089;BME280;7120;52.890;6.040;2023-01-08T07:18:03;99992.69;;;7.56;97.17
14089;BME280;7120;52.890;6.040;2023-01-08T07:20:33;99994.06;;;7.54;97.29
14089;BME280;7120;52.890;6.040;2023-01-08T07:23:03;99985.22;;;7.48;97.48
14089;BME280;7120;52.890;6.040;2023-01-08T07:25:30;99996.91;;;7.49;97.50
14089;BME280;7120;52.890;6.040;2023-01-08T07:27:58;100000.44;;;7.49;97.12
14089;BME280;7120;52.890;6.040;2023-01-08T07:30:24;100003.34;;;7.39;97.94
14089;BME280;7120;52.890;6.040;2023-01-08T07:32:50;99995.09;;;7.44;97.58
14089;BME280;7120;52.890;6.040;2023-01-08T07:35:16;99995.72;;;7.55;97.43
14089;BME280;7120;52.890;6.040;2023-01-08T07:37:42;99997.50;;;7.46;97.48
14089;BME280;7120;52.890;6.040;2023-01-08T07:40:09;99997.50;;;7.46;97.38
14089;BME280;7120;52.890;6.040;2023-01-08T07:42:36;100000.63;;;7.53;97.03
14089;BME280;7120;52.890;6.040;2023-01-08T07:45:17;99999.94;;;7.47;97.47
14089;BME280;7120;52.890;6.040;2023-01-08T07:47:42;99987.16;;;7.48;97.40
14089;BME280;7120;52.890;6.040;2023-01-08T07:50:08;99967.88;;;7.30;96.38
14089;BME280;7120;52.890;6.040;2023-01-08T07:52:33;99983.63;;;7.33;96.94
14089;BME280;7120;52.890;6.040;2023-01-08T07:54:59;99973.03;;;7.32;96.87
14089;BME280;7120;52.890;6.040;2023-01-08T07:57:24;100002.16;;;7.45;96.89
14089;BME280;7120;52.890;6.040;2023-01-08T07:59:51;99991.06;;;7.41;96.63
14089;BME280;7120;52.890;6.040;2023-01-08T08:02:16;99982.59;;;7.43;95.91
14089;BME280;7120;52.890;6.040;2023-01-08T08:04:41;99992.28;;;7.35;96.97
14089;BME280;7120;52.890;6.040;2023-01-08T08:07:08;99973.25;;;7.35;97.25
14089;BME280;7120;52.890;6.040;2023-01-08T08:09:33;99982.78;;;7.47;96.15
14089;BME280;7120;52.890;6.040;2023-01-08T08:11:59;99967.88;;;7.30;96.73
14089;BME280;7120;52.890;6.040;2023-01-08T08:14:24;99958.84;;;7.35;97.36
14089;BME280;7120;52.890;6.040;2023-01-08T08:16:50;99956.31;;;7.38;96.32
14089;BME280;7120;52.890;6.040;2023-01-08T08:19:15;99964.69;;;7.42;96.49
14089;BME280;7120;52.890;6.040;2023-01-08T08:21:40;99948.25;;;7.33;96.22
14089;BME280;7120;52.890;6.040;2023-01-08T08:24:06;99959.63;;;7.49;96.74
14089;BME280;7120;52.890;6.040;2023-01-08T08:26:31;99944.03;;;7.41;96.22
14089;BME280;7120;52.890;6.040;2023-01-08T08:28:57;99936.28;;;7.34;96.77
14089;BME280;7120;52.890;6.040;2023-01-08T08:31:22;99939.41;;;7.41;96.79
14089;BME280;7120;52.890;6.040;2023-01-08T08:33:48;99933.44;;;7.39;97.31
14089;BME280;7120;52.890;6.040;2023-01-08T08:36:13;99933.25;;;7.36;97.55
14089;BME280;7120;52.890;6.040;2023-01-08T08:38:39;99927.72;;;7.27;97.74
14089;BME280;7120;52.890;6.040;2023-01-08T08:41:04;99929.81;;;7.30;97.43
14089;BME280;7120;52.890;6.040;2023-01-08T08:43:30;99939.41;;;7.41;96.59
14089;BME280;7120;52.890;6.040;2023-01-08T08:45:55;99953.56;;;7.66;95.88
14089;BME280;7120;52.890;6.040;2023-01-08T08:48:21;99946.22;;;7.66;95.50
14089;BME280;7120;52.890;6.040;2023-01-08T08:50:47;99944.91;;;7.64;95.19
14089;BME280;7120;52.890;6.040;2023-01-08T08:53:12;99943.56;;;7.75;95.63
14089;BME280;7120;52.890;6.040;2023-01-08T08:55:38;99941.53;;;7.81;94.30
14089;BME280;7120;52.890;6.040;2023-01-08T08:58:05;99947.75;;;7.95;93.97
14089;BME280;7120;52.890;6.040;2023-01-08T09:00:31;99948.19;;;7.88;93.76
14089;BME280;7120;52.890;6.040;2023-01-08T09:02:57;99928.88;;;7.76;94.78
14089;BME280;7120;52.890;6.040;2023-01-08T09:05:22;99940.59;;;7.99;93.72
14089;BME280;7120;52.890;6.040;2023-01-08T09:07:48;99937.47;;;8.06;92.49
14089;BME280;7120;52.890;6.040;2023-01-08T09:10:16;99942.31;;;7.95;92.85
14089;BME280;7120;52.890;6.040;2023-01-08T09:12:42;99954.16;;;7.90;93.81
14089;BME280;7120;52.890;6.040;2023-01-08T09:15:07;99955.34;;;7.98;92.69
14089;BME280;7120;52.890;6.040;2023-01-08T09:17:33;99958.44;;;8.05;92.76
14089;BME280;7120;52.890;6.040;2023-01-08T09:20:01;99949.97;;;8.07;92.13
14089;BME280;7120;52.890;6.040;2023-01-08T09:22:26;99955.50;;;8.02;92.82
14089;BME280;7120;52.890;6.040;2023-01-08T09:24:52;99965.84;;;8.27;92.29
14089;BME280;7120;52.890;6.040;2023-01-08T09:27:19;99958.91;;;8.21;91.54
14089;BME280;7120;52.890;6.040;2023-01-08T09:29:44;99962.84;;;8.15;92.22
14089;BME280;7120;52.890;6.040;2023-01-08T09:32:10;99960.00;;;8.20;91.01
14089;BME280;7120;52.890;6.040;2023-01-08T09:34:37;99948.25;;;8.33;90.72
14089;BME280;7120;52.890;6.040;2023-01-08T09:37:03;99957.56;;;8.32;89.91
14089;BME280;7120;52.890;6.040;2023-01-08T09:39:31;99955.06;;;8.22;89.89
14089;BME280;7120;52.890;6.040;2023-01-08T09:42:00;99951.84;;;8.20;89.01
14089;BME280;7120;52.890;6.040;2023-01-08T09:44:29;99961.22;;;8.14;89.43
14089;BME280;7120;52.890;6.040;2023-01-08T09:46:59;99963.44;;;8.25;89.01
14089;BME280;7120;52.890;6.040;2023-01-08T09:49:35;99959.59;;;8.26;88.19
14089;BME280;7120;52.890;6.040;2023-01-08T09:52:03;99965.06;;;8.49;87.98
14089;BME280;7120;52.890;6.040;2023-01-08T09:54:29;99955.72;;;8.64;87.45
14089;BME280;7120;52.890;6.040;2023-01-08T09:56:58;99936.31;;;8.65;86.87
14089;BME280;7120;52.890;6.040;2023-01-08T09:59:25;99946.81;;;8.49;86.01
14089;BME280;7120;52.890;6.040;2023-01-08T10:01:51;99936.03;;;8.44;85.40
14089;BME280;7120;52.890;6.040;2023-01-08T10:04:23;99949.72;;;8.75;85.83
14089;BME280;7120;52.890;6.040;2023-01-08T10:06:51;99941.91;;;8.60;85.07
14089;BME280;7120;52.890;6.040;2023-01-08T10:09:30;99905.25;;;8.44;85.56
14089;BME280;7120;52.890;6.040;2023-01-08T10:12:03;99927.81;;;8.67;84.46
14089;BME280;7120;52.890;6.040;2023-01-08T10:14:34;99933.38;;;8.84;85.07
14089;BME280;7120;52.890;6.040;2023-01-08T10:17:30;99939.56;;;8.98;83.66
14089;BME280;7120;52.890;6.040;2023-01-08T10:20:15;99936.06;;;9.06;83.73
14089;BME280;7120;52.890;6.040;2023-01-08T10:22:41;99922.25;;;9.03;83.14
14089;BME280;7120;52.890;6.040;2023-01-08T10:25:18;99923.91;;;9.13;83.66
14089;BME280;7120;52.890;6.040;2023-01-08T10:27:51;99935.38;;;9.01;83.21
14089;BME280;7120;52.890;6.040;2023-01-08T10:30:21;99929.81;;;9.06;83.23
14089;BME280;7120;52.890;6.040;2023-01-08T10:32:51;99928.69;;;9.07;83.04
14089;BME280;7120;52.890;6.040;2023-01-08T10:35:32;99917.25;;;8.96;83.53
14089;BME280;7120;52.890;6.040;2023-01-08T10:37:58;99933.19;;;9.03;83.33
14089;BME280;7120;52.890;6.040;2023-01-08T10:43:04;99924.03;;;9.07;83.07
14089;BME280;7120;52.890;6.040;2023-01-08T10:45:31;99911.81;;;8.96;82.42
14089;BME280;7120;52.890;6.040;2023-01-08T10:47:59;99922.75;;;9.05;82.81
14089;BME280;7120;52.890;6.040;2023-01-08T10:50:30;99919.44;;;9.17;82.99
14089;BME280;7120;52.890;6.040;2023-01-08T10:53:04;99915.69;;;9.52;82.03
14089;BME280;7120;52.890;6.040;2023-01-08T10:55:32;99911.44;;;9.29;80.94
14089;BME280;7120;52.890;6.040;2023-01-08T10:58:22;99913.19;;;9.16;80.65
14089;BME280;7120;52.890;6.040;2023-01-08T11:00:48;99915.72;;;9.13;81.17
14089;BME280;7120;52.890;6.040;2023-01-08T11:03:27;99916.44;;;9.35;80.87
14089;BME280;7120;52.890;6.040;2023-01-08T11:05:55;99909.44;;;9.60;79.92
14089;BME280;7120;52.890;6.040;2023-01-08T11:08:21;99910.72;;;9.54;80.30
14089;BME280;7120;52.890;6.040;2023-01-08T11:10:58;99903.91;;;9.26;80.02
14089;BME280;7120;52.890;6.040;2023-01-08T11:13:23;99896.13;;;9.59;79.95
14089;BME280;7120;52.890;6.040;2023-01-08T11:16:04;99881.97;;;9.48;79.96
14089;BME280;7120;52.890;6.040;2023-01-08T11:18:46;99876.34;;;9.53;79.96
14089;BME280;7120;52.890;6.040;2023-01-08T11:21:27;99885.53;;;9.75;79.94
14089;BME280;7120;52.890;6.040;2023-01-08T11:24:14;99883.59;;;9.84;79.75
14089;BME280;7120;52.890;6.040;2023-01-08T11:26:44;99875.59;;;9.87;78.53
14089;BME280;7120;52.890;6.040;2023-01-08T11:29:17;99868.19;;;9.88;78.73
14089;BME280;7120;52.890;6.040;2023-01-08T11:32:08;99864.34;;;10.32;78.32
14089;BME280;7120;52.890;6.040;2023-01-08T11:34:58;99872.03;;;10.22;79.34
14089;BME280;7120;52.890;6.040;2023-01-08T11:37:35;99862.25;;;10.29;77.08
14089;BME280;7120;52.890;6.040;2023-01-08T11:40:01;99854.97;;;10.42;77.46
14089;BME280;7120;52.890;6.040;2023-01-08T11:42:47;99852.94;;;10.04;78.47
14089;BME280;7120;52.890;6.040;2023-01-08T11:45:32;99851.78;;;10.05;78.84
14089;BME280;7120;52.890;6.040;2023-01-08T11:50:53;99837.66;;;10.12;77.63
14089;BME280;7120;52.890;6.040;2023-01-08T11:53:37;99837.69;;;9.95;78.89
14089;BME280;7120;52.890;6.040;2023-01-08T11:56:19;99829.94;;;10.31;77.85
14089;BME280;7120;52.890;6.040;2023-01-08T12:04:29;99818.84;;;10.19;76.94
14089;BME280;7120;52.890;6.040;2023-01-08T12:07:11;99823.19;;;10.11;77.65
14089;BME280;7120;52.890;6.040;2023-01-08T12:09:41;99812.94;;;9.82;78.49
14089;BME280;7120;52.890;6.040;2023-01-08T12:21:13;99783.28;;;10.45;77.42
14089;BME280;7120;52.890;6.040;2023-01-08T12:26:31;99780.44;;;10.15;78.22
14089;BME280;7120;52.890;6.040;2023-01-08T12:32:16;99774.69;;;9.91;77.61
14089;BME280;7120;52.890;6.040;2023-01-08T12:37:17;99770.84;;;10.01;77.94
14089;BME280;7120;52.890;6.040;2023-01-08T12:39:59;99769.84;;;10.05;78.52
14089;BME280;7120;52.890;6.040;2023-01-08T12:42:29;99763.06;;;10.20;76.60
14089;BME280;7120;52.890;6.040;2023-01-08T12:44:57;99776.47;;;9.96;77.29
14089;BME280;7120;52.890;6.040;2023-01-08T12:47:26;99772.75;;;10.09;78.27
14089;BME280;7120;52.890;6.040;2023-01-08T12:50:08;99761.69;;;9.88;78.35
14089;BME280;7120;52.890;6.040;2023-01-08T12:55:44;99763.94;;;9.95;78.29
14089;BME280;7120;52.890;6.040;2023-01-08T13:03:56;99747.00;;;10.27;78.27
14089;BME280;7120;52.890;6.040;2023-01-08T13:06:23;99753.09;;;10.33;78.17
14089;BME280;7120;52.890;6.040;2023-01-08T13:08:50;99728.34;;;10.21;77.58
14089;BME280;7120;52.890;6.040;2023-01-08T13:11:31;99734.56;;;10.77;78.01
14089;BME280;7120;52.890;6.040;2023-01-08T13:14:03;99735.16;;;10.53;76.16
14089;BME280;7120;52.890;6.040;2023-01-08T13:16:34;99716.16;;;10.56;77.37
14089;BME280;7120;52.890;6.040;2023-01-08T13:19:02;99731.41;;;10.28;76.73
14089;BME280;7120;52.890;6.040;2023-01-08T13:21:37;99723.19;;;10.36;76.76
14089;BME280;7120;52.890;6.040;2023-01-08T13:24:06;99728.34;;;10.21;77.67
14089;BME280;7120;52.890;6.040;2023-01-08T13:26:44;99720.97;;;10.30;76.76
14089;BME280;7120;52.890;6.040;2023-01-08T13:29:36;99725.25;;;10.39;77.54
14089;BME280;7120;52.890;6.040;2023-01-08T13:32:04;99712.13;;;10.15;77.00
14089;BME280;7120;52.890;6.040;2023-01-08T13:34:39;99717.94;;;10.05;78.21
14089;BME280;7120;52.890;6.040;2023-01-08T13:37:06;99706.81;;;10.28;75.99
14089;BME280;7120;52.890;6.040;2023-01-08T13:39:37;99717.72;;;10.28;78.01
14089;BME280;7120;52.890;6.040;2023-01-08T13:44:49;99700.59;;;10.48;77.56
14089;BME280;7120;52.890;6.040;2023-01-08T13:47:24;99704.69;;;10.33;78.23
14089;BME280;7120;52.890;6.040;2023-01-08T13:49:52;99691.53;;;10.27;78.25
14089;BME280;7120;52.890;6.040;2023-01-08T13:52:46;99698.31;;;10.29;78.04
14089;BME280;7120;52.890;6.040;2023-01-08T13:55:19;99679.97;;;10.30;77.78
14089;BME280;7120;52.890;6.040;2023-01-08T13:57:53;99691.53;;;10.27;77.34
14089;BME280;7120;52.890;6.040;2023-01-08T14:00:27;99682.22;;;10.28;77.98
14089;BME280;7120;52.890;6.040;2023-01-08T14:02:53;99684.66;;;10.12;77.42
14089;BME280;7120;52.890;6.040;2023-01-08T14:05:28;99689.31;;;10.11;78.50
14089;BME280;7120;52.890;6.040;2023-01-08T14:07:55;99685.09;;;10.31;78.31
14089;BME280;7120;52.890;6.040;2023-01-08T14:10:21;99684.94;;;10.36;76.88
14089;BME280;7120;52.890;6.040;2023-01-08T14:12:47;99676.94;;;10.23;77.30
14089;BME280;7120;52.890;6.040;2023-01-08T14:15:20;99666.16;;;10.17;77.79
14089;BME280;7120;52.890;6.040;2023-01-08T14:17:46;99676.09;;;10.31;78.35
14089;BME280;7120;52.890;6.040;2023-01-08T14:20:18;99668.22;;;10.21;78.24
14089;BME280;7120;52.890;6.040;2023-01-08T14:22:45;99671.75;;;10.21;78.52
14089;BME280;7120;52.890;6.040;2023-01-08T14:25:15;99672.09;;;10.19;78.10
14089;BME280;7120;52.890;6.040;2023-01-08T14:27:56;99672.16;;;10.02;77.86
14089;BME280;7120;52.890;6.040;2023-01-08T14:30:22;99679.69;;;10.05;78.91
14089;BME280;7120;52.890;6.040;2023-01-08T14:32:48;99667.38;;;9.90;77.51